Current Weather

Republic

Farmingdale, New York (KFRG)

Report from: Friday, February 23, 2024 3:53 PM EST
Current time: Friday, February 23, 2024 4:29 PM EST

Nearby weather – Weather history – Daily summaries
Weather forecast

Temperature6.7°C (44.1°F)
Wind chill4.9°C (40.7°F)
Dew point4.4°C (39.9°F)
Winds 5 kts (2.6 m/s, 5.8 mph) North-Northeast (30°)
Visibility8 mi. (12.9 km)
Clouds Ceiling: Overcast 3,800 ft. (1,158 m)
Altimeter29.44 in.Hg (997 mB)
Relative humidity85 %
Density altitude-321 ft. (-98 m)
Sea-level pressure99.7 kPa (997 mB, 29.44 in.Hg)
Remarks Automated weather observing station without precipitation discriminator
Pressure falling more slowly
Flight conditions Visual Meteorological Conditions
Raw dataKFRG 232053Z 03005KT 8SM OVC038 07/04 A2944 RMK AO1 SLP970 T00670044 56009
An error has occurred. This application may no longer respond until reloaded. Reload 🗙